Details From EDDM - Muenchen Franz-josef Strauss
To LOXZ - Zeltweg
Flight Number -
Tags Generated
Created
Modified
Stats Distance 139 nm / 257 km
Max Altitude 0 ft / 0 m
Waypoints 2
Social Downloads 1
Likes 0
Share VATSIM

Download

Looking for another format? Having issues loading an existing format? Contact us
Advertisement - Login to hide

Notes

Generated

Route

EDDM LOXZ

ID Type Via Altitude Latitude Longitude Leg Dist Tot Dist Heading (true) Name
O EDDM APT - 0 ft / 0 m 48.34069˚ 11.75108˚ - 0 nm - -
O LOXZ APT - 0 ft / 0 m 47.20382˚ 14.74032˚ 138 nm 138 nm 118° / 121° -

Altitude Profile

Advertisement - Login to hide

EDDM

Details ICAO EDDM (MUC)
Name Muenchen Franz-Josef Strauss
Region Germany - Civil
Timezone Europe/Berlin (UTC+1.0)
Stats Elevation 1,487 ft / 453 m (AMSL)
Location 48.353786° 11.786117°
Runways 2
Magnetic Variation 3.162° E

METAR

EDDM 171920Z 27008KT 3100 -SN FEW010 BKN040 OVC050 00/M03 Q1025 R88/290095 BECMG 6000

Decode

TAF

TAF EDDM 171700Z 1718/1824 26010KT 9999 FEW015 BKN035 PROB30 TEMPO 1718/1720 4500 -SN BKN013 BECMG 1801/1803 22005KT BECMG 1808/1810 15005KT PROB30 TEMPO 1809/1813 4500 -SN BECMG 1814/1816 08005KT

Decode

Departure Runways

ID Width Length Bearing (true) Bearing (mag) Surface Threshold Offset Overrun Length
08L 197 ft / 60 m 13,086 ft / 3,989 m 83.38° 80.22° Concrete 0 ft / 0 m 0 ft / 0 m
08R 197 ft / 60 m 13,086 ft / 3,989 m 83.37° 80.21° Concrete 0 ft / 0 m 0 ft / 0 m
26L 197 ft / 60 m 13,086 ft / 3,989 m 263.41° 260.25° Concrete 0 ft / 0 m 0 ft / 0 m
26R 197 ft / 60 m 13,086 ft / 3,989 m 263.42° 260.26° Concrete 0 ft / 0 m 0 ft / 0 m

LOXZ

Details ICAO LOXZ
Name ZELTWEG
Region Austria
Timezone Europe/Vienna (UTC+1.0)
Stats Elevation 2,220 ft / 677 m (AMSL)
Location 47.203682° 14.745855°
Runways 2
Magnetic Variation 3.786° E

METAR

LOXZ 171850Z VRB02KT 10KM FEW030SC BKN040SC M04/M05 Q1020

Decode

TAF

Not found

Destination Runways

ID Width Length Bearing (true) Bearing (mag) Surface Threshold Offset Overrun Length
08 197 ft / 60 m 8,923 ft / 2,720 m 80.51° 76.72° Asphalt 492 ft / 150 m 115 ft / 35 m
08L 131 ft / 40 m 3,600 ft / 1,097 m 80.92° 77.13° Grass 0 ft / 0 m 115 ft / 35 m
26 197 ft / 60 m 8,923 ft / 2,720 m 260.53° 256.74° Asphalt 820 ft / 250 m 115 ft / 35 m
26R 131 ft / 40 m 3,600 ft / 1,097 m 260.93° 257.14° Grass 328 ft / 100 m 115 ft / 35 m